Time;durP1;ratioP1;P1;durP2;ratioP2;P2;SDS_P1;SDS_P2;PMS_P1;PMS_P2;Temp;Humidity;BMP_temperature;BMP_pressure;BME280_temperature;BME280_humidity;BME280_pressure;Samples;Min_cycle;Max_cycle;Signal;HPM_P1;HPM_P2
2021/11/25 00:02:02;;;;;;;14.77;12.73;;;9.70;99.90;;;;;;6115890;23;20420;-71
2021/11/25 00:04:34;;;;;;;16.03;12.57;;;9.70;99.90;;;;;;6118208;23;20465;-73
2021/11/25 00:07:04;;;;;;;14.60;12.07;;;9.70;99.90;;;;;;6109401;23;20422;-75
2021/11/25 00:09:38;;;;;;;18.57;14.53;;;9.60;99.90;;;;;;6118171;23;20491;-74
2021/11/25 00:12:09;;;;;;;14.77;11.30;;;9.50;99.90;;;;;;6126028;23;20518;-74
2021/11/25 00:14:41;;;;;;;14.83;11.60;;;9.40;99.90;;;;;;6119750;23;20411;-77
2021/11/25 00:17:14;;;;;;;13.83;11.70;;;9.50;99.90;;;;;;6119904;23;20893;-73
2021/11/25 00:19:45;;;;;;;14.57;10.63;;;9.50;99.90;;;;;;6121394;23;20420;-74
2021/11/25 00:22:16;;;;;;;16.47;11.40;;;9.50;99.90;;;;;;6119488;23;20204;-73
2021/11/25 00:24:50;;;;;;;12.55;11.10;;;9.50;99.90;;;;;;6120552;23;20443;-74
2021/11/25 00:27:21;;;;;;;17.02;12.63;;;9.40;99.90;;;;;;6120939;23;20199;-73
2021/11/25 00:29:53;;;;;;;13.20;11.40;;;9.50;99.90;;;;;;6113413;23;20192;-74
2021/11/25 00:32:25;;;;;;;15.27;12.00;;;9.40;99.90;;;;;;6109806;23;20812;-73
2021/11/25 00:35:00;;;;;;;17.90;12.00;;;9.40;99.90;;;;;;6121631;23;20180;-74
2021/11/25 00:37:32;;;;;;;11.65;8.60;;;9.40;99.90;;;;;;6121525;23;20506;-73
2021/11/25 00:40:09;;;;;;;11.75;9.65;;;9.40;99.90;;;;;;6122524;23;20183;-74
2021/11/25 00:42:40;;;;;;;11.52;9.57;;;9.50;99.90;;;;;;6120344;23;20191;-73
2021/11/25 00:45:25;;;;;;;11.52;9.40;;;9.50;99.90;;;;;;6122518;23;20206;-74
2021/11/25 00:47:59;;;;;;;12.80;10.47;;;9.40;99.90;;;;;;6118616;23;20187;-74
2021/11/25 00:50:30;;;;;;;13.10;10.50;;;9.40;99.90;;;;;;6121449;23;20430;-73
2021/11/25 00:53:03;;;;;;;11.52;9.57;;;9.40;99.90;;;;;;6116237;23;20274;-74
2021/11/25 00:55:36;;;;;;;10.65;8.65;;;9.30;99.90;;;;;;6118648;23;20210;-74
2021/11/25 00:58:07;;;;;;;8.38;7.13;;;9.20;99.90;;;;;;6119963;23;20266;-74
2021/11/25 01:00:40;;;;;;;8.80;7.90;;;9.20;99.90;;;;;;6120084;23;20544;-74
2021/11/25 01:03:12;;;;;;;9.15;8.25;;;9.30;99.90;;;;;;6122165;23;20412;-75
2021/11/25 01:05:47;;;;;;;9.17;8.20;;;9.30;99.90;;;;;;6118894;23;20271;-74
2021/11/25 01:08:19;;;;;;;10.40;8.02;;;9.30;99.90;;;;;;6122163;23;20756;-75
2021/11/25 01:10:56;;;;;;;11.95;8.55;;;9.30;99.90;;;;;;6121142;23;20187;-74
2021/11/25 01:13:30;;;;;;;15.73;9.15;;;9.40;99.90;;;;;;6122678;23;20537;-75
2021/11/25 01:16:03;;;;;;;10.23;8.83;;;9.40;99.90;;;;;;6121071;23;20274;-74
2021/11/25 01:18:38;;;;;;;9.75;8.75;;;9.30;99.90;;;;;;6114803;23;20418;-75
2021/11/25 01:21:11;;;;;;;11.73;9.13;;;9.20;99.90;;;;;;6116746;23;20184;-73
2021/11/25 01:23:43;;;;;;;12.27;9.68;;;9.10;99.90;;;;;;6120668;23;20479;-74
2021/11/25 01:26:15;;;;;;;11.40;9.80;;;9.20;99.90;;;;;;6119980;23;20275;-75
2021/11/25 01:28:46;;;;;;;10.80;9.70;;;9.30;99.90;;;;;;6115022;23;20609;-73
2021/11/25 01:31:17;;;;;;;12.40;10.13;;;9.30;99.90;;;;;;6116980;23;20194;-73
2021/11/25 01:33:48;;;;;;;12.15;10.85;;;9.20;99.90;;;;;;6119338;23;20408;-76
2021/11/25 01:36:19;;;;;;;12.60;9.98;;;9.20;99.90;;;;;;6120377;23;20239;-72
2021/11/25 01:38:49;;;;;;;13.60;10.52;;;9.20;99.90;;;;;;6120348;23;20168;-73
2021/11/25 01:41:22;;;;;;;12.23;10.90;;;9.20;99.90;;;;;;6119475;23;20478;-73
2021/11/25 01:43:53;;;;;;;12.88;10.95;;;9.10;99.90;;;;;;6121365;23;20208;-72
2021/11/25 01:46:24;;;;;;;13.90;10.80;;;9.00;99.90;;;;;;6119926;23;20191;-72
2021/11/25 01:48:55;;;;;;;12.60;11.17;;;9.00;99.90;;;;;;6117309;23;20412;-73
2021/11/25 01:51:26;;;;;;;14.95;11.48;;;9.00;99.90;;;;;;6118627;23;20412;-68
2021/11/25 01:53:57;;;;;;;11.20;10.00;;;9.00;99.90;;;;;;6116783;23;20272;-69
2021/11/25 01:56:29;;;;;;;12.63;11.33;;;9.00;99.90;;;;;;6110792;23;20442;-68
2021/11/25 01:59:01;;;;;;;12.80;11.43;;;9.00;99.90;;;;;;6118259;23;20416;-70
2021/11/25 02:01:34;;;;;;;15.10;11.23;;;9.10;99.90;;;;;;6118668;23;20912;-68
2021/11/25 02:04:07;;;;;;;15.40;12.93;;;9.10;99.90;;;;;;6116614;23;20519;-71
2021/11/25 02:06:42;;;;;;;15.30;12.48;;;9.00;99.90;;;;;;6119168;23;20482;-71
2021/11/25 02:09:13;;;;;;;18.38;13.68;;;9.00;99.90;;;;;;6120005;23;20245;-73
2021/11/25 02:11:48;;;;;;;16.75;14.20;;;9.10;99.90;;;;;;6117740;23;20510;-72
2021/11/25 02:14:19;;;;;;;16.42;14.43;;;9.10;99.90;;;;;;6119174;23;20183;-73
2021/11/25 02:16:52;;;;;;;16.73;14.00;;;9.20;99.90;;;;;;6113816;23;20207;-72
2021/11/25 02:19:25;;;;;;;15.50;12.50;;;9.20;99.90;;;;;;6109884;23;20184;-72
2021/11/25 02:21:58;;;;;;;15.10;13.60;;;9.20;99.90;;;;;;6117892;23;20412;-69
2021/11/25 02:24:29;;;;;;;17.05;13.10;;;9.10;99.90;;;;;;6119306;23;20235;-69
2021/11/25 02:27:00;;;;;;;17.77;14.25;;;9.00;99.90;;;;;;6121293;23;20271;-71
2021/11/25 02:29:31;;;;;;;16.33;13.35;;;9.00;99.90;;;;;;6119201;23;20184;-71
2021/11/25 02:32:02;;;;;;;16.45;13.27;;;9.00;99.90;;;;;;6118099;23;20246;-71
2021/11/25 02:34:44;;;;;;;15.93;13.65;;;9.00;99.90;;;;;;6120853;23;20267;-74
2021/11/25 02:37:45;;;;;;;17.48;13.27;;;9.00;99.90;;;;;;6114120;23;20260;-75
2021/11/25 02:40:19;;;;;;;12.63;11.33;;;8.90;99.90;;;;;;6117276;23;20204;-74
2021/11/25 02:42:55;;;;;;;14.48;12.82;;;8.90;99.90;;;;;;6116964;23;20942;-75
2021/11/25 02:45:27;;;;;;;13.90;11.25;;;9.00;99.90;;;;;;6118296;23;20199;-74
2021/11/25 02:47:58;;;;;;;18.55;12.27;;;8.90;99.90;;;;;;6118465;23;20266;-72
2021/11/25 02:50:29;;;;;;;15.57;13.52;;;8.80;99.90;;;;;;6117127;23;20183;-74
2021/11/25 02:53:02;;;;;;;14.43;12.40;;;8.80;99.90;;;;;;6114062;23;20194;-73
2021/11/25 02:55:33;;;;;;;15.38;13.48;;;8.80;99.90;;;;;;6119204;23;20269;-71
2021/11/25 02:58:06;;;;;;;15.43;13.20;;;8.80;99.90;;;;;;6118667;23;20194;-72
2021/11/25 03:00:44;;;;;;;17.35;13.82;;;8.90;99.90;;;;;;6118843;23;20194;-72
2021/11/25 03:03:16;;;;;;;15.88;14.23;;;8.90;99.90;;;;;;6120602;23;20188;-71
2021/11/25 03:05:51;;;;;;;16.55;14.80;;;8.90;99.90;;;;;;6118536;23;20204;-71
2021/11/25 03:08:24;;;;;;;16.30;14.40;;;8.80;99.90;;;;;;6117572;23;20184;-72
2021/11/25 03:11:01;;;;;;;16.70;13.32;;;8.70;99.90;;;;;;6117034;23;20323;-70
2021/11/25 03:13:33;;;;;;;16.77;14.63;;;8.70;99.90;;;;;;6118163;23;20184;-70
2021/11/25 03:16:04;;;;;;;16.38;14.30;;;8.70;99.90;;;;;;6118646;23;20204;-75
2021/11/25 03:18:36;;;;;;;16.57;13.60;;;8.80;99.90;;;;;;6116264;23;20198;-74
2021/11/25 03:21:07;;;;;;;16.17;14.02;;;8.80;99.90;;;;;;6121457;23;20422;-74
2021/11/25 03:23:40;;;;;;;14.75;12.20;;;8.80;99.90;;;;;;6124253;23;20190;-75
2021/11/25 03:26:12;;;;;;;16.85;13.35;;;8.60;99.90;;;;;;6116185;23;20195;-75
2021/11/25 03:28:44;;;;;;;15.77;13.98;;;8.60;99.90;;;;;;6118936;23;20194;-76
2021/11/25 03:31:18;;;;;;;16.02;14.00;;;8.60;99.90;;;;;;6119298;23;20175;-76
2021/11/25 03:33:49;;;;;;;14.82;13.32;;;8.60;99.90;;;;;;6118976;23;20184;-76
2021/11/25 03:36:21;;;;;;;15.52;13.50;;;8.60;99.90;;;;;;6119337;23;20195;-75
2021/11/25 03:38:54;;;;;;;16.52;14.82;;;8.60;99.90;;;;;;6118330;23;20184;-75
2021/11/25 03:41:25;;;;;;;17.75;15.77;;;8.70;99.90;;;;;;6120880;23;20184;-74
2021/11/25 03:44:09;;;;;;;17.10;14.97;;;8.80;99.90;;;;;;6114525;23;20184;-76
2021/11/25 03:50:54;;;;;;;15.20;13.60;;;8.80;99.90;;;;;;6123200;23;20605;-75
2021/11/25 03:58:31;;;;;;;18.42;14.13;;;8.50;99.90;;;;;;6078678;23;20402;-76
2021/11/25 04:01:19;;;;;;;17.25;14.73;;;8.50;99.90;;;;;;6121153;23;20222;-74
2021/11/25 04:04:06;;;;;;;17.40;15.50;;;8.50;99.90;;;;;;6111676;23;20184;-74
2021/11/25 04:06:40;;;;;;;20.47;15.70;;;8.50;99.90;;;;;;6117618;23;20454;-75
2021/11/25 04:09:54;;;;;;;18.37;15.60;;;8.50;99.90;;;;;;6118664;23;20447;-75
2021/11/25 05:21:08;;;;;;;19.55;17.20;;;8.50;99.90;;;;;;6119533;23;20198;-75
2021/11/25 05:27:14;;;;;;;21.70;17.52;;;8.50;99.90;;;;;;6113541;23;21344;-74
2021/11/25 05:33:45;;;;;;;23.08;17.88;;;8.60;99.90;;;;;;6120727;23;20193;-76
2021/11/25 05:36:44;;;;;;;23.05;18.75;;;8.60;99.90;;;;;;6110483;23;20179;-76
2021/11/25 05:39:19;;;;;;;27.30;19.97;;;8.50;99.90;;;;;;6120204;23;20214;-73
2021/11/25 05:42:00;;;;;;;26.50;19.98;;;8.60;99.90;;;;;;6119744;23;20927;-73
2021/11/25 07:47:32;;;;;;;19.15;16.75;;;8.50;99.90;;;;;;6102654;23;20210;-74
2021/11/25 10:07:59;;;;;;;20.63;15.68;;;7.90;99.90;;;;;;6148937;23;20214;-79
2021/11/25 10:10:32;;;;;;;19.23;16.83;;;7.90;99.90;;;;;;6145834;23;20659;-76
2021/11/25 10:13:15;;;;;;;19.20;16.02;;;7.90;99.90;;;;;;6153146;23;20183;-72
2021/11/25 10:15:47;;;;;;;20.15;17.15;;;8.00;99.90;;;;;;6154773;23;20183;-73
2021/11/25 10:18:19;;;;;;;18.48;16.52;;;8.00;99.90;;;;;;6152586;23;20682;-77
2021/11/25 10:20:52;;;;;;;19.55;17.02;;;7.90;99.90;;;;;;6151516;23;20183;-75
2021/11/25 10:23:29;;;;;;;22.63;17.73;;;7.90;99.90;;;;;;6146172;23;20182;-77
2021/11/25 10:26:01;;;;;;;23.23;16.83;;;7.90;99.90;;;;;;6149629;23;20313;-76
2021/11/25 10:28:41;;;;;;;18.55;16.13;;;7.90;99.90;;;;;;6148929;23;20498;-74
2021/11/25 10:31:17;;;;;;;20.02;16.95;;;7.70;99.90;;;;;;6149211;23;20190;-76
2021/11/25 10:33:52;;;;;;;19.90;15.95;;;7.70;99.90;;;;;;6151179;23;20625;-76
2021/11/25 10:36:31;;;;;;;19.55;17.40;;;7.80;99.90;;;;;;6147971;23;20182;-79
2021/11/25 10:39:15;;;;;;;22.60;18.02;;;7.90;99.90;;;;;;6149015;23;20183;-75
2021/11/25 10:41:50;;;;;;;21.50;18.63;;;7.90;99.90;;;;;;6151398;23;20186;-76
2021/11/25 10:44:24;;;;;;;20.38;18.02;;;7.80;99.90;;;;;;6148355;23;20512;-75
2021/11/25 13:25:08;;;;;;;27.98;22.38;;;6.10;99.90;;;;;;6173475;23;20206;-68
2021/11/25 13:27:39;;;;;;;31.48;23.70;;;6.20;99.90;;;;;;6178030;23;20206;-69
2021/11/25 13:30:10;;;;;;;29.27;23.52;;;6.20;99.90;;;;;;6176324;23;20190;-70
2021/11/25 13:32:41;;;;;;;33.13;24.00;;;6.20;99.90;;;;;;6180023;23;20257;-69
2021/11/25 13:35:14;;;;;;;27.95;23.63;;;6.30;99.90;;;;;;6182197;23;20209;-68
2021/11/25 13:37:50;;;;;;;35.40;26.02;;;6.30;99.90;;;;;;6177999;23;20302;-67
2021/11/25 13:40:24;;;;;;;31.38;25.15;;;6.30;99.90;;;;;;6181057;23;20182;-68
2021/11/25 13:43:02;;;;;;;34.08;25.92;;;6.30;99.90;;;;;;6179019;23;20290;-69
2021/11/25 13:45:33;;;;;;;32.20;25.15;;;6.20;99.90;;;;;;6179643;23;20183;-68
2021/11/25 13:48:04;;;;;;;31.67;25.02;;;6.20;99.90;;;;;;6177982;23;20261;-70
2021/11/25 13:50:42;;;;;;;32.45;24.38;;;6.10;99.90;;;;;;6180347;23;20182;-70
2021/11/25 13:53:12;;;;;;;31.27;25.40;;;6.10;99.90;;;;;;6173362;23;20286;-69
2021/11/25 13:55:45;;;;;;;31.10;24.63;;;6.00;99.90;;;;;;6180369;23;20642;-68
2021/11/25 13:58:16;;;;;;;29.33;24.40;;;6.10;99.90;;;;;;6176735;23;20182;-67
2021/11/25 14:00:49;;;;;;;32.08;24.00;;;6.10;99.90;;;;;;6178270;23;20631;-67
2021/11/25 14:03:23;;;;;;;31.85;24.20;;;6.10;99.90;;;;;;6178189;23;20206;-69
2021/11/25 14:05:56;;;;;;;31.05;25.95;;;6.10;99.90;;;;;;6175606;23;20243;-70
2021/11/25 14:08:31;;;;;;;29.20;24.25;;;6.20;99.90;;;;;;6176216;23;20562;-72
2021/11/25 14:11:17;;;;;;;29.75;24.00;;;6.20;99.90;;;;;;6180229;23;20262;-70
2021/11/25 14:13:49;;;;;;;31.90;25.38;;;6.20;99.90;;;;;;6177782;23;20361;-70
2021/11/25 14:16:23;;;;;;;31.15;25.30;;;6.20;99.90;;;;;;6177617;23;20179;-70
2021/11/25 14:21:56;;;;;;;32.10;25.23;;;6.20;99.90;;;;;;6179800;23;20197;-69
2021/11/25 14:24:28;;;;;;;28.80;24.08;;;6.20;99.90;;;;;;6197581;23;20208;-70
2021/11/25 14:30:07;;;;;;;30.35;25.02;;;6.30;99.90;;;;;;6205751;23;20182;-69
2021/11/25 14:32:42;;;;;;;25.77;22.15;;;6.40;99.90;;;;;;6211768;23;20521;-70
2021/11/25 14:52:21;;;;;;;33.10;24.92;;;6.90;99.90;;;;;;6203762;23;20197;-75
2021/11/25 15:03:13;;;;;;;33.42;24.05;;;6.80;99.90;;;;;;6203488;23;20521;-75
2021/11/25 15:06:01;;;;;;;28.08;23.52;;;6.70;99.90;;;;;;6206140;23;20185;-77
2021/11/25 15:08:36;;;;;;;31.02;24.65;;;6.80;99.90;;;;;;6207968;23;20584;-76
2021/11/25 15:11:25;;;;;;;34.38;23.83;;;6.60;99.90;;;;;;6207960;23;20244;-76
2021/11/25 15:18:02;;;;;;;27.95;22.20;;;6.60;99.90;;;;;;6205723;23;20188;-75
2021/11/25 15:24:16;;;;;;;28.90;23.23;;;6.60;99.90;;;;;;6195945;23;20272;-75
2021/11/25 15:26:48;;;;;;;26.17;22.70;;;6.70;99.90;;;;;;6210062;23;20197;-73
2021/11/25 15:29:19;;;;;;;788.20;145.80;;;6.80;99.90;;;;;;6203697;23;20189;-73
2021/11/25 15:31:49;;;;;;;29.17;23.13;;;6.90;99.90;;;;;;6207434;23;20268;-73
2021/11/25 15:34:20;;;;;;;726.90;134.35;;;7.00;99.90;;;;;;6208867;23;20247;-72
2021/11/25 15:36:51;;;;;;;31.13;24.35;;;7.10;99.90;;;;;;6206734;23;20257;-72
2021/11/25 15:39:24;;;;;;;28.27;22.15;;;7.00;99.90;;;;;;6207885;23;20244;-72
2021/11/25 15:41:55;;;;;;;30.27;23.90;;;7.00;99.90;;;;;;6204458;23;20182;-74
2021/11/25 15:44:26;;;;;;;28.33;22.60;;;7.00;99.90;;;;;;6211059;23;20193;-74
2021/11/25 15:46:57;;;;;;;29.20;23.77;;;7.00;99.90;;;;;;6201291;23;20228;-74
2021/11/25 15:49:28;;;;;;;27.17;23.63;;;7.00;99.90;;;;;;6211125;23;20254;-71
2021/11/25 15:52:02;;;;;;;28.15;23.10;;;7.20;99.90;;;;;;6208493;23;20256;-75
2021/11/25 15:54:35;;;;;;;30.98;24.90;;;7.20;99.90;;;;;;6208904;23;20668;-73
2021/11/25 15:57:11;;;;;;;27.95;22.20;;;7.30;99.90;;;;;;6211423;23;20184;-74
2021/11/25 15:59:44;;;;;;;28.30;22.52;;;7.40;99.90;;;;;;6209850;23;20375;-74
2021/11/25 16:02:16;;;;;;;31.80;25.15;;;7.40;99.90;;;;;;6209311;23;20531;-74
2021/11/25 16:04:47;;;;;;;35.45;25.35;;;7.40;99.90;;;;;;6208941;23;20677;-72
2021/11/25 16:07:18;;;;;;;26.58;22.00;;;7.50;99.90;;;;;;6210599;23;20205;-69
2021/11/25 16:09:51;;;;;;;29.70;23.42;;;7.40;99.90;;;;;;6209126;23;20213;-70
2021/11/25 16:12:25;;;;;;;29.67;23.73;;;7.40;99.90;;;;;;6211479;23;20466;-72
2021/11/25 16:15:04;;;;;;;27.83;22.55;;;7.40;99.90;;;;;;6210031;23;20250;-73
2021/11/25 16:17:35;;;;;;;28.20;23.20;;;7.40;99.90;;;;;;6208318;23;20220;-71
2021/11/25 16:20:07;;;;;;;27.73;23.77;;;7.40;99.90;;;;;;6211054;23;20201;-70
2021/11/25 16:22:41;;;;;;;28.75;22.45;;;7.50;99.90;;;;;;6208427;23;20257;-73
2021/11/25 16:25:14;;;;;;;25.60;22.75;;;7.20;99.90;;;;;;6211430;23;20249;-71
2021/11/25 16:27:46;;;;;;;31.17;25.73;;;7.00;99.90;;;;;;6203547;23;20281;-73
2021/11/25 16:30:17;;;;;;;28.85;23.02;;;7.10;99.90;;;;;;6209123;23;20373;-70
2021/11/25 16:32:48;;;;;;;35.10;25.83;;;7.10;99.90;;;;;;6207437;23;20256;-69
2021/11/25 16:35:22;;;;;;;27.50;23.23;;;7.30;99.90;;;;;;6210320;23;20188;-72
2021/11/25 16:38:36;;;;;;;27.90;22.30;;;7.50;99.90;;;;;;6201274;23;20182;-73
2021/11/25 16:41:22;;;;;;;25.58;21.90;;;7.60;99.90;;;;;;6198244;23;20193;-74
2021/11/25 16:43:54;;;;;;;22.13;19.60;;;8.10;99.90;;;;;;6207253;23;20185;-72
2021/11/25 16:46:36;;;;;;;22.45;19.52;;;8.50;99.90;;;;;;6208531;23;20268;-71
2021/11/25 16:49:07;;;;;;;22.75;19.75;;;9.20;99.90;;;;;;6210381;23;20296;-71
2021/11/25 16:51:55;;;;;;;19.20;17.20;;;10.20;99.90;;;;;;6193763;23;20677;-72
2021/11/25 16:54:29;;;;;;;18.60;16.70;;;10.40;99.90;;;;;;6210542;23;20188;-71
2021/11/25 17:01:34;;;;;;;20.20;17.97;;;9.50;99.90;;;;;;6201848;23;20743;-73
2021/11/25 17:04:50;;;;;;;18.73;16.70;;;8.80;99.90;;;;;;6200900;23;20421;-74
2021/11/25 17:07:21;;;;;;;19.70;17.15;;;8.80;99.90;;;;;;6210267;23;20193;-71
2021/11/25 17:09:52;;;;;;;19.60;17.50;;;8.80;99.90;;;;;;6211519;23;20182;-72
2021/11/25 17:12:25;;;;;;;19.73;17.17;;;9.00;99.90;;;;;;6210945;23;20432;-72
2021/11/25 17:15:02;;;;;;;19.30;17.20;;;8.80;99.90;;;;;;6211339;23;20755;-71
2021/11/25 17:17:35;;;;;;;18.75;15.35;;;8.70;99.90;;;;;;6208109;23;20488;-72
2021/11/25 17:20:09;;;;;;;19.98;17.38;;;8.60;99.90;;;;;;6210321;23;20181;-71
2021/11/25 17:22:40;;;;;;;18.42;16.45;;;8.60;99.90;;;;;;6207974;23;20645;-72
2021/11/25 17:25:13;;;;;;;20.77;18.05;;;8.70;99.90;;;;;;6208443;23;20202;-71
2021/11/25 17:27:45;;;;;;;29.58;21.70;;;8.70;99.90;;;;;;6210582;23;20208;-71
2021/11/25 17:30:19;;;;;;;23.50;19.52;;;8.90;99.90;;;;;;6207524;23;20217;-73
2021/11/25 17:32:50;;;;;;;20.27;17.60;;;9.20;99.90;;;;;;6205963;23;20713;-71
2021/11/25 17:35:24;;;;;;;22.27;17.98;;;9.40;99.90;;;;;;6206013;23;20192;-71
2021/11/25 17:37:54;;;;;;;20.52;16.23;;;9.50;99.90;;;;;;6212879;23;20182;-71
2021/11/25 17:40:25;;;;;;;17.90;15.85;;;9.80;99.90;;;;;;6210896;23;20188;-72
2021/11/25 17:43:02;;;;;;;16.87;15.17;;;10.00;99.90;;;;;;6209595;23;20182;-72
2021/11/25 17:49:12;;;;;;;16.07;14.50;;;11.10;99.90;;;;;;6200933;23;20769;-73
2021/11/25 18:03:56;;;;;;;11.40;10.20;;;13.30;99.90;;;;;;6208102;23;20781;-76
2021/11/25 18:06:32;;;;;;;11.30;10.37;;;14.00;99.90;;;;;;6206575;23;20504;-74
2021/11/25 18:09:10;;;;;;;12.00;10.93;;;14.30;99.90;;;;;;6206627;23;20480;-74
2021/11/25 18:12:10;;;;;;;12.17;11.07;;;14.00;99.90;;;;;;6208765;23;20444;-75
2021/11/25 18:19:09;;;;;;;12.43;11.37;;;14.30;99.90;;;;;;6189597;23;20392;-73
2021/11/25 18:26:31;;;;;;;13.60;12.40;;;13.70;99.90;;;;;;6140067;23;20506;-95
2021/11/25 18:30:00;;;;;;;12.87;11.77;;;14.70;99.90;;;;;;6172765;23;20448;-74
2021/11/25 18:37:17;;;;;;;10.67;9.77;;;15.50;99.90;;;;;;6173418;23;20392;-75
2021/11/25 18:40:16;;;;;;;10.50;9.50;;;16.00;99.90;;;;;;6176614;23;20395;-73
2021/11/25 18:43:14;;;;;;;12.77;11.60;;;16.20;98.80;;;;;;6181057;23;20388;-71
2021/11/25 18:45:46;;;;;;;11.60;10.43;;;15.50;99.90;;;;;;6181787;23;20422;-70
2021/11/25 18:48:18;;;;;;;9.60;8.77;;;15.20;99.90;;;;;;6176725;23;20884;-72
2021/11/25 18:50:51;;;;;;;10.60;9.70;;;15.20;99.50;;;;;;6180244;23;20396;-69
2021/11/25 18:53:22;;;;;;;9.97;9.07;;;15.20;99.10;;;;;;6175238;23;20440;-70
2021/11/25 18:55:54;;;;;;;9.83;8.93;;;14.80;99.90;;;;;;6178374;23;20507;-70
2021/11/25 18:58:40;;;;;;;10.77;9.67;;;15.10;99.90;;;;;;6176039;23;20412;-70
2021/11/25 19:01:13;;;;;;;9.10;8.30;;;16.20;99.90;;;;;;6175961;23;20410;-69
2021/11/25 19:03:44;;;;;;;7.63;6.93;;;16.70;98.00;;;;;;6180815;23;20449;-70
2021/11/25 19:06:17;;;;;;;8.83;8.13;;;16.70;96.80;;;;;;6179035;23;20756;-72
2021/11/25 19:08:48;;;;;;;9.40;8.70;;;16.80;96.20;;;;;;6179514;23;20467;-71
2021/11/25 19:11:19;;;;;;;9.97;9.23;;;16.60;96.10;;;;;;6178190;23;20516;-70
2021/11/25 19:13:50;;;;;;;8.97;8.27;;;16.30;97.60;;;;;;6175976;23;20440;-70
2021/11/25 19:16:22;;;;;;;8.83;8.13;;;16.80;95.70;;;;;;6178871;23;20498;-71
2021/11/25 19:18:53;;;;;;;8.90;8.10;;;16.80;94.90;;;;;;6182440;23;20413;-69
2021/11/25 19:21:26;;;;;;;8.30;7.60;;;16.60;95.40;;;;;;6180928;23;20421;-73
2021/11/25 19:24:01;;;;;;;8.00;7.40;;;16.50;94.60;;;;;;6169103;23;20415;-73
2021/11/25 19:50:48;;;;;;;7.77;7.07;;;14.70;98.60;;;;;;6161259;23;20500;-70
2021/11/25 19:53:19;;;;;;;7.40;6.80;;;14.40;98.00;;;;;;6174828;23;20418;-71
2021/11/25 19:55:50;;;;;;;5.10;4.70;;;14.70;96.70;;;;;;6181876;23;20399;-71
2021/11/25 19:58:40;;;;;;;6.77;6.07;;;14.70;96.30;;;;;;6178739;23;20712;-73
2021/11/25 20:01:15;;;;;;;5.23;4.73;;;14.80;96.70;;;;;;6176465;23;20398;-73
2021/11/25 20:04:06;;;;;;;5.50;5.10;;;14.90;94.40;;;;;;6178848;23;20441;-73
2021/11/25 20:14:56;;;;;;;6.00;5.40;;;14.50;97.00;;;;;;6149424;23;20477;-72
2021/11/25 20:25:58;;;;;;;7.77;6.97;;;14.70;95.20;;;;;;6163211;23;20452;-71
2021/11/25 20:28:30;;;;;;;15.87;14.53;;;14.30;96.10;;;;;;6177842;23;20421;-71
2021/11/25 20:31:02;;;;;;;27.57;24.97;;;14.30;96.20;;;;;;6177892;23;20407;-72
2021/11/25 20:33:35;;;;;;;40.10;36.90;;;14.40;96.90;;;;;;6172878;23;20422;-71
2021/11/25 20:36:52;;;;;;;67.80;62.30;;;14.30;97.20;;;;;;6182870;23;20436;-72
2021/11/25 20:39:30;;;;;;;49.77;46.17;;;14.10;96.80;;;;;;6208808;23;20413;-73
2021/11/25 20:42:03;;;;;;;47.00;43.80;;;14.30;96.80;;;;;;6209946;23;20451;-73
2021/11/25 20:44:35;;;;;;;9.97;9.27;;;14.20;96.50;;;;;;6204488;23;20428;-73
2021/11/25 20:47:11;;;;;;;6.10;5.60;;;14.10;97.10;;;;;;6208670;23;20440;-70
2021/11/25 20:49:44;;;;;;;4.80;4.30;;;14.10;96.70;;;;;;6198833;23;20444;-69
2021/11/25 20:52:15;;;;;;;5.30;4.80;;;14.00;96.20;;;;;;6207793;23;20412;-69
2021/11/25 20:54:51;;;;;;;5.20;4.57;;;14.10;97.00;;;;;;6208107;23;20452;-69
2021/11/25 20:57:22;;;;;;;5.30;4.80;;;14.20;96.50;;;;;;6209189;23;20402;-69
2021/11/25 20:59:53;;;;;;;5.87;5.47;;;14.20;97.20;;;;;;6207446;23;20409;-72
2021/11/25 21:35:52;;;;;;;4.63;4.20;;;14.50;96.10;;;;;;6107759;23;20677;-84
2021/11/25 21:41:49;;;;;;;13.63;12.63;;;14.50;95.70;;;;;;6175583;23;20795;-74
2021/11/25 21:48:29;;;;;;;10.87;10.07;;;14.60;97.50;;;;;;6146783;23;20478;-75
2021/11/25 22:08:54;;;;;;;3.30;3.00;;;15.10;94.40;;;;;;6171163;23;20877;-70
2021/11/25 22:15:24;;;;;;;3.30;3.00;;;14.90;94.60;;;;;;6178401;23;20416;-70
2021/11/25 22:18:16;;;;;;;3.80;3.50;;;15.00;96.10;;;;;;6164692;23;20547;-71
2021/11/25 22:24:59;;;;;;;8.53;3.77;;;14.90;94.40;;;;;;6164672;23;20418;-74
2021/11/25 22:27:45;;;;;;;3.00;2.80;;;14.80;95.10;;;;;;6176170;23;20432;-71
2021/11/25 22:34:48;;;;;;;7.63;3.53;;;14.70;94.10;;;;;;6171010;23;20421;-70
2021/11/25 22:37:41;;;;;;;4.27;3.87;;;14.60;94.10;;;;;;6196691;23;20464;-72
2021/11/25 22:40:35;;;;;;;4.17;3.80;;;14.50;93.80;;;;;;6205524;23;21022;-72
2021/11/25 22:43:14;;;;;;;6.40;4.70;;;14.50;94.30;;;;;;6208789;23;20432;-72
2021/11/25 22:45:49;;;;;;;8.17;7.47;;;14.30;94.10;;;;;;6205564;23;20511;-68
2021/11/25 22:48:22;;;;;;;6.33;5.73;;;14.30;93.90;;;;;;6202558;23;20413;-70
2021/11/25 22:50:58;;;;;;;3.60;3.30;;;14.30;94.50;;;;;;6203387;23;20480;-69
2021/11/25 22:54:07;;;;;;;3.03;2.77;;;14.40;94.50;;;;;;6204948;23;20490;-83
2021/11/25 23:01:16;;;;;;;3.20;3.00;;;14.10;95.20;;;;;;6130448;23;20905;-74
2021/11/25 23:15:52;;;;;;;3.27;2.97;;;14.10;92.90;;;;;;6210042;23;20471;-73
